Time;durP1;ratioP1;P1;durP2;ratioP2;P2;SDS_P1;SDS_P2;PMS_P1;PMS_P2;Temp;Humidity;BMP_temperature;BMP_pressure;BME280_temperature;BME280_humidity;BME280_pressure;Samples;Min_cycle;Max_cycle;Signal;HPM_P1;HPM_P2
2021/07/24 00:00:21;;;;;;;;;20.00;15.75;;;;;26.28;40.96;100233.13;4899010;29;47024;-72
2021/07/24 00:02:46;;;;;;;;;17.25;16.25;;;;;26.25;40.78;100222.72;4899203;29;45415;-70
2021/07/24 00:05:12;;;;;;;;;17.25;15.00;;;;;26.23;40.85;100225.53;4899433;29;45458;-71
2021/07/24 00:07:37;;;;;;;;;20.25;18.50;;;;;26.22;40.84;100215.78;4899127;29;45372;-70
2021/07/24 00:10:03;;;;;;;;;18.50;18.00;;;;;26.22;40.87;100223.00;4899092;29;47310;-70
2021/07/24 00:12:29;;;;;;;;;18.00;16.50;;;;;26.20;40.89;100217.78;4898519;29;45601;-70
2021/07/24 00:14:54;;;;;;;;;19.50;17.75;;;;;26.20;41.05;100227.66;4898679;29;46803;-70
2021/07/24 00:17:19;;;;;;;;;14.00;14.00;;;;;26.17;40.72;100226.13;4899188;29;52982;-71
2021/07/24 00:19:44;;;;;;;;;16.50;16.50;;;;;26.13;40.57;100222.03;4899108;29;46471;-71
2021/07/24 00:22:10;;;;;;;;;18.00;16.25;;;;;26.10;40.63;100216.09;4898806;29;45613;-71
2021/07/24 00:24:35;;;;;;;;;16.50;15.25;;;;;26.08;40.51;100205.53;4898608;29;45364;-71
2021/07/24 00:27:01;;;;;;;;;13.25;12.50;;;;;26.05;40.68;100201.28;4881098;29;54479;-71
2021/07/24 00:29:27;;;;;;;;;13.50;13.50;;;;;26.04;40.54;100201.41;4898605;29;45986;-71
2021/07/24 00:31:54;;;;;;;;;17.25;14.75;;;;;26.03;40.34;100210.47;4899183;29;45422;-70
2021/07/24 00:34:20;;;;;;;;;18.00;18.00;;;;;26.03;40.58;100216.69;4898796;29;45536;-71
2021/07/24 00:36:45;;;;;;;;;14.50;14.50;;;;;26.03;40.52;100210.47;4898621;29;45461;-70
2021/07/24 00:39:11;;;;;;;;;19.00;13.00;;;;;26.00;40.29;100205.38;4898716;29;46054;-71
2021/07/24 00:41:41;;;;;;;;;14.25;13.25;;;;;25.98;40.58;100221.63;4898436;29;45495;-71
2021/07/24 00:44:08;;;;;;;;;17.00;15.50;;;;;25.97;40.62;100219.06;4899409;29;45568;-71
2021/07/24 00:46:35;;;;;;;;;15.75;14.75;;;;;25.92;40.41;100205.25;4898881;29;45478;-71
2021/07/24 00:49:02;;;;;;;;;15.75;14.50;;;;;25.92;40.62;100211.47;4898475;29;45414;-70
2021/07/24 00:51:31;;;;;;;;;15.00;14.25;;;;;25.91;40.75;100219.63;4898314;29;45510;-72
2021/07/24 00:53:57;;;;;;;;;16.25;15.50;;;;;25.92;40.58;100227.56;4898563;29;45350;-71
2021/07/24 00:56:26;;;;;;;;;18.50;17.25;;;;;25.89;40.87;100230.53;4898038;29;45489;-71
2021/07/24 00:58:52;;;;;;;;;15.50;14.25;;;;;25.85;40.74;100227.22;4898049;29;46172;-71
2021/07/24 01:01:18;;;;;;;;;16.50;14.50;;;;;25.85;40.71;100242.47;4897628;29;45763;-72
2021/07/24 01:03:43;;;;;;;;;19.00;14.25;;;;;25.81;40.66;100247.28;4898307;29;45416;-72
2021/07/24 01:06:12;;;;;;;;;17.75;14.75;;;;;25.81;41.12;100239.25;4898514;29;45304;-72
2021/07/24 01:08:38;;;;;;;;;15.75;14.50;;;;;25.80;41.08;100226.81;4898054;29;45445;-72
2021/07/24 01:11:04;;;;;;;;;16.00;15.00;;;;;25.80;40.98;100210.72;4898546;29;45283;-72
2021/07/24 01:13:30;;;;;;;;;20.50;17.25;;;;;25.82;41.10;100213.28;4898053;29;45681;-72
2021/07/24 01:15:55;;;;;;;;;12.25;12.25;;;;;25.83;41.24;100209.59;4897913;29;45482;-72
2021/07/24 01:18:21;;;;;;;;;17.50;16.50;;;;;25.84;41.13;100205.94;4898038;29;46258;-71
2021/07/24 01:20:49;;;;;;;;;14.50;13.00;;;;;25.83;41.11;100202.41;4898334;29;45553;-70
2021/07/24 01:23:17;;;;;;;;;17.75;14.75;;;;;25.83;41.34;100197.03;4894728;29;45412;-71
2021/07/24 01:25:43;;;;;;;;;15.25;14.00;;;;;25.82;41.98;100199.88;4897706;29;45525;-71
2021/07/24 01:28:08;;;;;;;;;16.00;13.25;;;;;25.79;41.57;100184.06;4897376;29;47319;-71
2021/07/24 01:30:33;;;;;;;;;14.25;12.00;;;;;25.75;42.25;100196.91;4897893;29;45498;-71
2021/07/24 01:32:59;;;;;;;;;17.50;15.25;;;;;25.72;42.09;100218.66;4898048;29;45357;-71
2021/07/24 01:35:24;;;;;;;;;14.75;14.75;;;;;25.71;42.41;100226.81;4898184;29;45499;-71
2021/07/24 01:37:49;;;;;;;;;17.00;14.75;;;;;25.66;42.42;100223.72;4898401;29;45467;-71
2021/07/24 01:40:14;;;;;;;;;19.00;16.75;;;;;25.61;43.02;100233.03;4897325;29;52624;-71
2021/07/24 01:42:40;;;;;;;;;28.00;22.75;;;;;25.58;44.33;100243.19;4897854;29;45568;-71
2021/07/24 01:45:06;;;;;;;;;14.50;14.00;;;;;25.51;45.62;100252.78;4897909;29;45486;-70
2021/07/24 01:47:34;;;;;;;;;15.75;12.00;;;;;25.37;45.70;100230.75;4897812;29;45511;-71
2021/07/24 01:52:48;;;;;;;;;14.25;9.00;;;;;25.15;47.09;100244.38;4898098;29;45478;-71
2021/07/24 01:55:31;;;;;;;;;14.75;10.25;;;;;25.09;47.99;100269.00;4897356;29;45415;-71
2021/07/24 01:58:00;;;;;;;;;11.25;11.00;;;;;24.98;48.98;100262.78;4897488;29;45459;-71
2021/07/24 02:00:26;;;;;;;;;7.50;7.00;;;;;24.90;49.64;100259.06;4897632;29;45508;-71
2021/07/24 02:02:53;;;;;;;;;10.00;9.00;;;;;24.80;49.80;100243.81;4898006;29;45429;-71
2021/07/24 02:05:39;;;;;;;;;11.50;9.00;;;;;24.69;49.93;100238.53;4898029;29;45442;-71
2021/07/24 02:08:06;;;;;;;;;9.50;9.50;;;;;24.64;50.20;100256.00;4897173;29;46071;-71
2021/07/24 02:10:32;;;;;;;;;9.50;9.00;;;;;24.55;50.97;100254.94;4899221;28;45364;-71
2021/07/24 02:12:59;;;;;;;;;12.50;12.50;;;;;24.47;52.64;100254.78;4900826;29;45553;-73
2021/07/24 02:15:24;;;;;;;;;8.25;8.25;;;;;24.37;52.59;100263.56;4901280;29;45358;-71
2021/07/24 02:17:50;;;;;;;;;12.00;11.00;;;;;24.26;52.27;100266.31;4900982;29;45881;-72
2021/07/24 02:20:19;;;;;;;;;9.75;9.00;;;;;24.20;52.47;100268.69;4901958;29;45508;-71
2021/07/24 02:22:44;;;;;;;;;9.00;8.25;;;;;24.11;53.19;100264.94;4901115;29;45284;-71
2021/07/24 02:25:10;;;;;;;;;11.00;11.00;;;;;24.08;52.93;100270.56;4900214;29;45305;-72
2021/07/24 02:27:35;;;;;;;;;9.00;5.00;;;;;24.11;53.11;100273.81;4900615;29;48359;-71
2021/07/24 02:30:01;;;;;;;;;12.00;10.75;;;;;24.10;53.25;100266.78;4900476;29;45301;-70
2021/07/24 02:32:26;;;;;;;;;12.25;11.25;;;;;24.06;52.61;100269.84;4900557;29;45332;-71
2021/07/24 02:34:52;;;;;;;;;10.25;10.25;;;;;24.05;52.92;100265.44;4901306;29;45399;-71
2021/07/24 02:37:17;;;;;;;;;9.25;8.50;;;;;24.05;52.54;100273.47;4900516;29;45338;-70
2021/07/24 02:39:42;;;;;;;;;9.25;8.25;;;;;24.06;52.86;100275.19;4900180;29;45587;-69
2021/07/24 02:42:07;;;;;;;;;6.25;6.25;;;;;24.06;52.55;100272.50;4900765;28;45620;-70
2021/07/24 02:44:33;;;;;;;;;10.50;8.75;;;;;24.08;52.87;100279.41;4900579;29;45433;-71
2021/07/24 02:46:58;;;;;;;;;8.00;8.00;;;;;24.11;51.88;100273.81;4901477;29;45450;-70
2021/07/24 02:49:23;;;;;;;;;8.00;7.00;;;;;24.12;52.49;100269.31;4900385;29;45435;-70
2021/07/24 02:51:49;;;;;;;;;9.25;9.25;;;;;24.12;52.58;100270.16;4900488;29;45434;-71
2021/07/24 02:54:14;;;;;;;;;6.75;6.75;;;;;24.07;52.04;100274.19;4899916;29;45381;-71
2021/07/24 02:56:40;;;;;;;;;3.75;3.75;;;;;24.00;52.82;100262.31;4900176;29;46208;-71
2021/07/24 02:59:05;;;;;;;;;5.50;5.25;;;;;23.89;52.26;100269.41;4900754;29;45495;-70
2021/07/24 03:01:30;;;;;;;;;6.50;6.50;;;;;23.83;52.70;100253.88;4900451;29;45519;-71
2021/07/24 03:03:56;;;;;;;;;8.25;5.00;;;;;23.78;52.19;100253.41;4900242;29;45462;-71
2021/07/24 03:06:21;;;;;;;;;8.25;7.00;;;;;23.73;52.66;100255.59;4900073;29;46226;-72
2021/07/24 03:08:46;;;;;;;;;5.00;5.00;;;;;23.69;52.46;100257.69;4899509;29;45342;-72
2021/07/24 03:11:12;;;;;;;;;6.75;5.75;;;;;23.65;52.46;100253.56;4900905;29;45349;-72
2021/07/24 03:13:37;;;;;;;;;8.00;5.50;;;;;23.60;52.21;100260.28;4899412;29;51993;-71
2021/07/24 03:16:02;;;;;;;;;7.00;7.00;;;;;23.57;53.07;100277.38;4899461;29;46087;-71
2021/07/24 03:18:28;;;;;;;;;6.00;4.25;;;;;23.52;52.06;100284.94;4899710;29;45499;-72
2021/07/24 03:20:53;;;;;;;;;6.00;6.00;;;;;23.45;52.42;100297.09;4899737;28;52460;-73
2021/07/24 03:23:18;;;;;;;;;7.00;7.00;;;;;23.39;52.30;100300.28;4899767;29;47161;-73
2021/07/24 03:25:43;;;;;;;;;5.75;5.75;;;;;23.35;52.47;100312.19;4899974;29;46223;-73
2021/07/24 03:28:09;;;;;;;;;6.25;5.50;;;;;23.28;52.42;100309.16;4900062;29;45306;-72
2021/07/24 03:30:37;;;;;;;;;5.50;5.50;;;;;23.20;52.29;100306.25;4899759;29;45581;-72
2021/07/24 03:33:02;;;;;;;;;6.25;5.50;;;;;23.16;52.49;100313.66;4900168;29;45181;-71
2021/07/24 03:35:27;;;;;;;;;5.00;5.00;;;;;23.10;52.52;100306.16;4899867;29;45386;-70
2021/07/24 03:37:53;;;;;;;;;3.25;3.25;;;;;23.04;52.59;100317.28;4900650;29;45514;-71
2021/07/24 03:40:20;;;;;;;;;6.50;6.50;;;;;23.00;52.45;100319.38;4899873;29;45477;-73
2021/07/24 03:42:45;;;;;;;;;5.75;5.75;;;;;22.96;53.37;100322.38;4899531;29;45304;-72
2021/07/24 03:45:11;;;;;;;;;6.00;6.00;;;;;22.91;53.56;100328.06;4899233;29;47024;-72
2021/07/24 03:47:36;;;;;;;;;4.50;3.50;;;;;22.86;53.43;100340.94;4899796;29;45350;-71
2021/07/24 03:50:02;;;;;;;;;6.25;6.25;;;;;22.83;53.81;100346.47;4900146;29;45503;-71
2021/07/24 03:52:27;;;;;;;;;5.50;4.50;;;;;22.77;53.76;100357.66;4899457;29;45348;-72
2021/07/24 03:54:53;;;;;;;;;7.75;6.00;;;;;22.71;54.30;100363.44;4899073;29;48875;-72
2021/07/24 03:57:18;;;;;;;;;4.50;3.75;;;;;22.61;53.91;100387.31;4899848;29;45320;-72
2021/07/24 03:59:43;;;;;;;;;5.50;5.50;;;;;22.54;54.36;100386.09;4899626;29;45270;-71
2021/07/24 04:02:12;;;;;;;;;6.50;6.50;;;;;22.45;54.86;100388.50;4900059;29;45613;-72
2021/07/24 04:04:38;;;;;;;;;4.00;4.00;;;;;22.37;54.73;100382.03;4898370;29;46302;-71
2021/07/24 04:07:04;;;;;;;;;6.00;6.00;;;;;22.29;55.43;100398.59;4899048;29;45483;-72
2021/07/24 04:09:32;;;;;;;;;9.00;6.00;;;;;22.21;55.08;100401.81;4899112;29;45355;-72
2021/07/24 04:11:58;;;;;;;;;7.25;7.25;;;;;22.14;54.88;100399.69;4899203;29;45575;-72
2021/07/24 04:14:23;;;;;;;;;6.25;5.50;;;;;22.08;54.62;100395.69;4898821;29;46169;-71
2021/07/24 04:16:49;;;;;;;;;5.50;5.25;;;;;22.05;54.71;100390.59;4899489;29;45478;-70
2021/07/24 04:19:14;;;;;;;;;6.00;6.00;;;;;22.04;55.11;100415.53;4898983;29;45339;-70
2021/07/24 04:21:39;;;;;;;;;5.00;5.00;;;;;22.01;54.70;100423.75;4899092;29;45381;-71
2021/07/24 04:24:05;;;;;;;;;4.25;4.25;;;;;21.98;54.73;100413.31;4898456;29;61175;-71
2021/07/24 04:26:31;;;;;;;;;9.25;5.25;;;;;21.96;55.11;100407.25;4898876;29;47909;-71
2021/07/24 04:28:58;;;;;;;;;6.00;5.50;;;;;21.94;54.33;100404.69;4899364;29;45402;-72
2021/07/24 04:31:23;;;;;;;;;6.25;6.00;;;;;21.94;55.00;100418.00;4898525;29;45654;-73
2021/07/24 04:33:48;;;;;;;;;3.50;3.50;;;;;21.92;55.66;100417.28;4897491;29;46121;-72
2021/07/24 04:36:14;;;;;;;;;7.50;5.00;;;;;21.89;56.52;100404.19;4898991;29;45468;-72
2021/07/24 04:38:41;;;;;;;;;6.50;4.00;;;;;21.84;56.19;100415.16;4898684;28;45583;-70
2021/07/24 04:41:06;;;;;;;;;4.50;4.50;;;;;21.82;56.88;100424.25;4899501;29;45320;-73
2021/07/24 04:43:32;;;;;;;;;5.50;5.50;;;;;21.80;56.32;100421.69;4898564;29;46134;-73
2021/07/24 04:45:57;;;;;;;;;5.50;5.25;;;;;21.78;56.19;100412.94;4898459;29;45374;-72
2021/07/24 04:48:22;;;;;;;;;7.00;6.25;;;;;21.77;57.04;100423.72;4898020;29;48580;-71
2021/07/24 04:50:51;;;;;;;;;11.00;9.00;;;;;21.77;56.29;100413.06;4898538;29;45406;-72
2021/07/24 04:53:17;;;;;;;;;5.25;4.75;;;;;21.77;56.34;100429.91;4895191;29;45328;-72
2021/07/24 04:55:44;;;;;;;;;8.75;7.50;;;;;21.73;56.93;100432.88;4898177;29;45570;-72
2021/07/24 04:58:10;;;;;;;;;7.00;7.00;;;;;21.67;57.04;100428.03;4897649;29;45405;-72
2021/07/24 05:00:42;;;;;;;;;10.50;10.50;;;;;21.60;57.69;100433.78;4897793;29;45875;-72
2021/07/24 05:03:08;;;;;;;;;9.00;9.00;;;;;21.56;57.40;100434.09;4897178;29;47513;-71
2021/07/24 05:05:35;;;;;;;;;8.00;7.25;;;;;21.52;57.46;100441.44;4897856;29;45475;-71
2021/07/24 05:08:01;;;;;;;;;8.75;8.25;;;;;21.50;58.14;100448.72;4898797;29;45399;-71
2021/07/24 05:10:27;;;;;;;;;9.25;7.00;;;;;21.51;57.76;100446.91;4897839;29;45281;-71
2021/07/24 05:12:52;;;;;;;;;7.75;6.00;;;;;21.53;58.15;100450.31;4897590;29;45431;-71
2021/07/24 05:15:17;;;;;;;;;8.75;8.75;;;;;21.53;57.95;100444.97;4897468;29;45480;-73
2021/07/24 05:17:43;;;;;;;;;5.50;5.50;;;;;21.52;57.66;100446.75;4897639;28;45660;-72
2021/07/24 05:20:09;;;;;;;;;6.75;6.00;;;;;21.52;58.05;100454.75;4898450;29;45408;-72
2021/07/24 05:22:34;;;;;;;;;4.75;4.75;;;;;21.53;58.12;100451.16;4897195;29;46467;-71
2021/07/24 05:24:59;;;;;;;;;8.50;7.00;;;;;21.56;58.10;100468.72;4897295;29;45498;-71
2021/07/24 05:27:24;;;;;;;;;7.75;6.00;;;;;21.54;58.12;100466.16;4897552;29;45523;-72
2021/07/24 05:29:50;;;;;;;;;6.00;5.75;;;;;21.52;57.70;100459.25;4897093;29;45382;-71
2021/07/24 05:32:15;;;;;;;;;6.00;6.00;;;;;21.46;57.56;100470.34;4897544;29;46730;-70
2021/07/24 05:34:40;;;;;;;;;6.75;5.00;;;;;21.41;57.76;100473.31;4897063;29;45313;-71
2021/07/24 05:37:06;;;;;;;;;5.50;5.50;;;;;21.39;57.60;100456.56;4896991;29;45287;-71
2021/07/24 05:39:31;;;;;;;;;10.00;8.75;;;;;21.39;57.72;100456.56;4896755;29;45550;-72
2021/07/24 05:41:56;;;;;;;;;12.00;8.25;;;;;21.40;57.51;100463.59;4896635;29;47263;-70
2021/07/24 05:44:22;;;;;;;;;8.00;8.00;;;;;21.46;57.51;100468.53;4896091;29;45289;-71
2021/07/24 05:46:47;;;;;;;;;8.25;6.75;;;;;21.54;57.56;100460.81;4897150;29;45510;-72
2021/07/24 05:49:14;;;;;;;;;7.00;6.00;;;;;21.56;57.59;100474.06;4897132;29;45438;-70
2021/07/24 05:51:40;;;;;;;;;7.00;5.75;;;;;21.37;58.38;100467.31;4896776;29;45289;-69
2021/07/24 05:54:09;;;;;;;;;9.50;9.50;;;;;21.20;58.26;100463.16;4896351;29;45526;-72
2021/07/24 05:56:37;;;;;;;;;6.50;5.50;;;;;21.08;58.98;100455.19;4897155;29;45312;-73
2021/07/24 05:59:04;;;;;;;;;7.00;5.75;;;;;21.00;58.74;100459.22;4897681;29;46050;-72
2021/07/24 06:01:29;;;;;;;;;9.00;7.00;;;;;20.94;58.83;100456.97;4879087;29;47239;-73
2021/07/24 06:03:55;;;;;;;;;5.25;5.25;;;;;20.93;58.76;100457.09;4896853;29;45380;-72
2021/07/24 06:06:20;;;;;;;;;5.25;5.25;;;;;20.93;58.86;100459.75;4896943;29;45524;-74
2021/07/24 06:08:46;;;;;;;;;7.75;7.50;;;;;21.02;58.75;100453.78;4896676;29;45327;-74
2021/07/24 06:11:11;;;;;;;;;9.25;9.25;;;;;21.13;58.78;100453.03;4897467;29;45948;-75
2021/07/24 06:13:36;;;;;;;;;6.00;6.00;;;;;21.11;58.73;100458.47;4891740;29;45438;-74
2021/07/24 06:16:02;;;;;;;;;6.25;6.25;;;;;21.17;58.61;100450.06;4891403;29;45471;-72
2021/07/24 06:18:27;;;;;;;;;10.75;9.00;;;;;21.25;58.50;100449.53;4896891;29;45485;-74
2021/07/24 06:20:52;;;;;;;;;8.50;8.50;;;;;21.31;58.49;100448.25;4896869;29;46109;-73
2021/07/24 06:23:19;;;;;;;;;9.00;5.75;;;;;21.32;58.25;100445.47;4897417;29;45746;-75
2021/07/24 06:25:51;;;;;;;;;7.00;5.00;;;;;21.30;58.51;100457.19;4875139;29;45557;-74
2021/07/24 06:28:17;;;;;;;;;9.50;7.25;;;;;21.33;58.99;100452.53;4896380;29;45496;-71
2021/07/24 06:30:42;;;;;;;;;10.00;8.50;;;;;21.33;58.59;100443.66;4892094;29;45497;-72
2021/07/24 06:33:08;;;;;;;;;7.00;6.00;;;;;21.35;58.72;100447.91;4897314;29;45539;-70
2021/07/24 06:35:33;;;;;;;;;8.50;8.50;;;;;21.40;58.41;100453.84;4897011;29;45628;-71
2021/07/24 06:37:59;;;;;;;;;8.25;7.50;;;;;21.40;58.21;100443.19;4897647;29;45564;-74
2021/07/24 06:40:25;;;;;;;;;8.00;6.25;;;;;21.44;58.31;100450.94;4896654;29;46840;-74
2021/07/24 06:42:51;;;;;;;;;10.75;8.50;;;;;21.45;58.13;100450.81;4896866;29;45394;-84
2021/07/24 06:45:16;;;;;;;;;3.50;3.50;;;;;21.45;57.22;100461.47;4896353;29;46093;-74
2021/07/24 06:47:41;;;;;;;;;8.50;7.25;;;;;21.38;57.48;100446.84;4896829;29;45497;-72
2021/07/24 06:50:07;;;;;;;;;6.00;5.00;;;;;21.35;57.15;100457.72;4896753;29;53293;-71
2021/07/24 06:52:32;;;;;;;;;8.50;7.00;;;;;21.37;57.14;100451.34;4896549;29;45700;-71
2021/07/24 06:54:58;;;;;;;;;11.75;9.25;;;;;21.44;56.85;100457.13;4895923;29;45398;-72
2021/07/24 06:57:23;;;;;;;;;6.00;6.00;;;;;21.51;56.60;100450.41;4899459;29;45270;-73
2021/07/24 06:59:49;;;;;;;;;4.00;4.00;;;;;21.57;56.15;100454.44;4899231;29;45470;-73
2021/07/24 07:02:14;;;;;;;;;6.00;6.00;;;;;21.63;55.99;100462.84;4900432;29;45466;-71
2021/07/24 07:04:40;;;;;;;;;4.75;4.75;;;;;21.69;56.13;100464.25;4899967;29;45474;-71
2021/07/24 07:07:06;;;;;;;;;5.75;4.50;;;;;21.71;55.50;100464.13;4899411;29;45530;-70
2021/07/24 07:09:32;;;;;;;;;2.25;2.25;;;;;21.72;55.39;100461.34;4899417;29;46492;-72
2021/07/24 07:11:57;;;;;;;;;7.50;4.25;;;;;21.77;55.34;100458.38;4899335;29;45467;-71
2021/07/24 07:14:26;;;;;;;;;9.25;8.25;;;;;21.84;55.07;100451.63;4899712;28;45431;-71
2021/07/24 07:16:52;;;;;;;;;8.00;5.25;;;;;21.92;55.02;100457.25;4899337;29;45415;-72
2021/07/24 07:19:21;;;;;;;;;6.00;4.75;;;;;22.03;54.68;100460.00;4898901;29;47093;-72
2021/07/24 07:21:46;;;;;;;;;5.00;5.00;;;;;22.09;54.26;100464.00;4882197;29;45397;-71
2021/07/24 07:24:12;;;;;;;;;3.00;3.00;;;;;22.13;53.88;100462.84;4899574;29;45521;-72
2021/07/24 07:26:40;;;;;;;;;4.00;4.00;;;;;22.22;53.83;100458.69;4899605;29;45369;-71
2021/07/24 07:29:06;;;;;;;;;4.75;4.75;;;;;22.31;53.97;100462.47;4899264;29;45359;-73
2021/07/24 07:31:34;;;;;;;;;6.00;5.00;;;;;22.42;53.66;100468.72;4896888;29;45294;-72
2021/07/24 07:34:00;;;;;;;;;5.75;4.75;;;;;22.55;53.18;100463.34;4899152;29;45365;-72
2021/07/24 07:36:26;;;;;;;;;5.75;5.75;;;;;22.68;52.70;100463.25;4898925;29;45531;-71
2021/07/24 07:38:55;;;;;;;;;4.75;4.75;;;;;22.82;52.51;100472.91;4899140;29;45987;-72
2021/07/24 07:41:20;;;;;;;;;4.25;3.25;;;;;22.92;52.33;100475.72;4899593;29;45309;-71
2021/07/24 07:43:46;;;;;;;;;4.00;4.00;;;;;22.97;51.77;100470.88;4899205;29;45809;-70
2021/07/24 07:46:12;;;;;;;;;5.25;4.00;;;;;22.99;51.49;100468.97;4898646;29;45394;-70
2021/07/24 07:48:38;;;;;;;;;1.75;1.75;;;;;23.00;50.86;100479.53;4898321;29;45492;-71
2021/07/24 07:51:04;;;;;;;;;4.00;4.00;;;;;22.99;51.17;100471.63;4899079;29;45376;-72
2021/07/24 07:53:30;;;;;;;;;1.75;1.75;;;;;23.04;51.00;100478.31;4895831;28;45492;-72
2021/07/24 07:55:55;;;;;;;;;9.75;8.00;;;;;23.06;51.28;100481.72;4899060;29;45333;-72
2021/07/24 07:58:23;;;;;;;;;5.25;4.25;;;;;23.05;51.10;100472.03;4897538;29;45549;-71
2021/07/24 08:00:48;;;;;;;;;4.00;4.00;;;;;23.05;51.08;100469.34;4897698;29;45458;-71
2021/07/24 08:03:13;;;;;;;;;5.00;4.50;;;;;23.10;51.36;100456.50;4898180;29;45489;-71
2021/07/24 08:05:39;;;;;;;;;5.75;3.75;;;;;23.19;50.93;100454.94;4898384;29;45449;-72
2021/07/24 08:08:04;;;;;;;;;9.00;6.00;;;;;23.26;50.68;100455.28;4898096;29;45933;-71
2021/07/24 08:10:30;;;;;;;;;7.75;6.50;;;;;23.39;50.66;100449.88;4898384;29;45369;-72
2021/07/24 08:12:55;;;;;;;;;5.50;5.50;;;;;23.50;50.04;100450.72;4897915;29;45492;-71
2021/07/24 08:15:21;;;;;;;;;7.75;6.00;;;;;23.60;50.00;100464.19;4898172;29;45500;-73
2021/07/24 08:17:47;;;;;;;;;4.00;2.75;;;;;23.70;49.39;100450.94;4898360;29;46274;-72
2021/07/24 08:20:13;;;;;;;;;2.75;1.75;;;;;23.81;48.90;100455.44;4881688;29;45791;-71
2021/07/24 08:22:38;;;;;;;;;4.25;4.25;;;;;23.88;49.73;100452.19;4898172;29;45567;-73
2021/07/24 08:25:05;;;;;;;;;4.75;3.50;;;;;24.05;49.46;100452.63;4880418;29;45578;-73
2021/07/24 08:27:34;;;;;;;;;3.00;3.00;;;;;24.21;48.66;100449.56;4897293;29;46345;-71
2021/07/24 08:30:00;;;;;;;;;5.50;4.75;;;;;24.27;48.24;100465.94;4897375;29;45454;-71
2021/07/24 08:32:26;;;;;;;;;3.00;3.00;;;;;24.31;47.37;100463.84;4897683;28;45272;-71
2021/07/24 08:34:52;;;;;;;;;4.00;4.00;;;;;24.32;47.10;100452.19;4898829;29;45353;-72
2021/07/24 08:37:18;;;;;;;;;2.50;2.50;;;;;24.34;47.18;100448.41;4897646;29;46430;-72
2021/07/24 08:39:44;;;;;;;;;6.00;3.75;;;;;24.35;46.09;100451.94;4897587;29;45500;-72
2021/07/24 08:42:28;;;;;;;;;2.75;2.75;;;;;24.41;46.97;100451.44;4897625;29;45367;-71
2021/07/24 08:44:53;;;;;;;;;2.00;2.00;;;;;24.51;46.51;100446.22;4882927;29;45407;-73
2021/07/24 08:47:19;;;;;;;;;3.75;2.75;;;;;24.55;45.93;100437.78;4898186;29;46119;-73
2021/07/24 08:49:44;;;;;;;;;6.00;4.75;;;;;24.59;46.19;100441.88;4897008;29;45436;-73
2021/07/24 08:52:15;;;;;;;;;3.00;3.00;;;;;24.62;46.03;100421.19;4897616;29;45597;-72
2021/07/24 08:54:41;;;;;;;;;7.25;5.50;;;;;24.68;45.46;100444.78;4897403;29;45573;-73
2021/07/24 08:57:07;;;;;;;;;3.75;3.25;;;;;24.78;45.35;100440.34;4897342;29;46116;-73
2021/07/24 08:59:35;;;;;;;;;4.75;4.75;;;;;24.91;45.80;100430.31;4897108;29;45624;-73
2021/07/24 09:02:02;;;;;;;;;6.00;5.00;;;;;25.04;45.16;100434.59;4896552;29;45406;-73
2021/07/24 09:04:31;;;;;;;;;3.50;1.75;;;;;25.17;45.09;100441.50;4897061;29;45217;-73
2021/07/24 09:07:05;;;;;;;;;4.00;4.00;;;;;25.30;44.76;100441.25;4896984;29;46337;-72
2021/07/24 09:09:31;;;;;;;;;2.50;2.50;;;;;25.45;44.15;100447.09;4896955;29;45536;-72
2021/07/24 09:11:57;;;;;;;;;4.25;3.25;;;;;25.53;43.74;100443.75;4898078;29;45523;-75
2021/07/24 09:14:22;;;;;;;;;4.00;3.00;;;;;25.72;44.14;100442.97;4897645;29;45551;-76
2021/07/24 09:16:49;;;;;;;;;4.75;3.75;;;;;25.99;44.21;100445.06;4897677;29;46166;-74
2021/07/24 09:19:16;;;;;;;;;4.00;4.00;;;;;26.28;43.54;100447.78;4896926;29;45343;-74
2021/07/24 09:21:42;;;;;;;;;4.00;3.33;;;;;26.59;42.94;100440.50;4896996;29;45317;-74
2021/07/24 09:24:21;;;;;;;;;6.25;3.50;;;;;26.93;42.78;100448.09;4896293;29;45545;-75
2021/07/24 09:26:47;;;;;;;;;3.00;2.00;;;;;27.27;42.06;100440.41;4881826;29;46341;-75
2021/07/24 09:29:15;;;;;;;;;3.00;3.00;;;;;27.70;41.04;100448.88;4897237;29;45281;-73
2021/07/24 09:31:44;;;;;;;;;3.67;3.67;;;;;28.14;41.11;100446.38;4896695;29;45486;-74
2021/07/24 09:34:11;;;;;;;;;5.33;3.33;;;;;28.72;40.07;100434.31;4896806;29;45579;-75
2021/07/24 09:36:38;;;;;;;;;4.33;4.33;;;;;29.33;38.99;100436.09;4895959;29;46345;-75
2021/07/24 09:39:16;;;;;;;;;4.50;4.50;;;;;30.14;37.63;100429.34;4896609;29;45383;-78
2021/07/24 09:41:44;;;;;;;;;3.00;3.00;;;;;30.79;36.29;100433.97;4896894;29;45509;-74
2021/07/24 09:44:09;;;;;;;;;3.67;3.00;;;;;30.92;34.11;100441.59;4897625;29;45359;-77
2021/07/24 09:46:35;;;;;;;;;3.00;3.00;;;;;30.92;35.30;100444.31;4896913;29;46261;-75
2021/07/24 09:49:11;;;;;;;;;3.00;3.00;;;;;31.12;34.64;100436.66;4879848;29;45328;-75
2021/07/24 09:51:41;;;;;;;;;7.67;2.33;;;;;31.45;34.04;100431.19;4877446;29;45607;-75
2021/07/24 09:54:23;;;;;;;;;4.00;3.00;;;;;31.64;32.72;100448.88;4896341;29;45591;-75
2021/07/24 09:56:50;;;;;;;;;3.33;3.00;;;;;31.74;33.17;100453.06;4881709;29;46168;-75
2021/07/24 09:59:20;;;;;;;;;3.33;3.33;;;;;32.24;30.70;100467.19;4896934;29;45361;-78
2021/07/24 10:01:55;;;;;;;;;4.67;3.67;;;;;33.33;30.92;100448.88;4881428;29;45244;-75
2021/07/24 10:04:40;;;;;;;;;4.67;4.00;;;;;34.38;29.52;100453.13;4878840;29;45444;-77
2021/07/24 10:07:09;;;;;;;;;3.00;3.00;;;;;35.14;29.38;100455.28;4878292;29;45445;-75
2021/07/24 10:09:36;;;;;;;;;1.67;1.67;;;;;35.67;27.44;100452.88;4878737;29;45318;-74
2021/07/24 10:12:05;;;;;;;;;4.33;3.33;;;;;35.84;27.07;100452.53;4878486;29;45410;-73
2021/07/24 10:14:31;;;;;;;;;2.00;2.00;;;;;36.20;25.82;100471.31;4878573;29;45556;-74
2021/07/24 10:16:59;;;;;;;;;2.67;2.67;;;;;36.30;25.10;100488.13;4878102;29;46350;-72
2021/07/24 10:19:26;;;;;;;;;3.00;2.67;;;;;36.20;25.70;100465.88;4878496;29;46098;-86
2021/07/24 10:21:53;;;;;;;;;2.00;2.00;;;;;36.21;26.08;100473.00;4861624;29;45435;-75
2021/07/24 10:24:19;;;;;;;;;3.00;3.00;;;;;36.65;26.23;100473.53;4878984;29;45322;-74
2021/07/24 10:27:07;;;;;;;;;4.00;3.00;;;;;36.44;24.80;100467.16;4878957;29;46573;-72
2021/07/24 10:29:41;;;;;;;;;3.00;2.00;;;;;35.02;25.70;100470.44;4876967;29;45701;-72
2021/07/24 10:32:09;;;;;;;;;3.33;3.00;;;;;33.90;26.24;100460.09;4859557;29;45481;-72
2021/07/24 10:34:38;;;;;;;;;1.33;1.33;;;;;33.14;27.29;100465.69;4880975;29;45571;-72
2021/07/24 10:37:35;;;;;;;;;7.67;6.00;;;;;32.32;28.46;100459.03;4881311;29;46141;-72
2021/07/24 10:40:15;;;;;;;;;4.67;3.00;;;;;31.67;28.86;100460.19;4882369;29;45741;-72
2021/07/24 10:42:41;;;;;;;;;3.33;3.33;;;;;31.30;29.98;100453.53;4882261;29;45464;-74
2021/07/24 10:45:32;;;;;;;;;2.00;2.00;;;;;30.99;30.04;100449.88;4882445;29;45394;-73
2021/07/24 10:48:16;;;;;;;;;6.00;4.67;;;;;30.63;30.90;100458.28;4867991;29;47201;-72
2021/07/24 10:50:53;;;;;;;;;3.67;2.67;;;;;30.21;31.26;100456.53;4881350;29;45279;-72
2021/07/24 10:53:18;;;;;;;;;4.67;2.33;;;;;29.87;31.34;100441.28;4877508;29;45531;-72
2021/07/24 10:55:46;;;;;;;;;2.00;2.00;;;;;29.82;32.02;100449.84;4881734;29;45344;-73
2021/07/24 10:58:12;;;;;;;;;3.00;2.00;;;;;29.83;31.69;100437.19;4881609;29;45566;-71
2021/07/24 11:00:54;;;;;;;;;3.00;1.67;;;;;29.85;31.92;100430.63;4888549;29;45518;-73
2021/07/24 11:03:43;;;;;;;;;2.67;2.67;;;;;29.90;31.63;100426.59;4899875;29;45421;-72
2021/07/24 11:06:26;;;;;;;;;3.33;3.33;;;;;30.01;31.99;100435.25;4887247;29;45456;-73
2021/07/24 11:08:57;;;;;;;;;8.67;6.00;;;;;30.20;31.87;100428.69;4884877;28;45908;-73
2021/07/24 11:12:07;;;;;;;;;1.00;1.00;;;;;30.27;31.58;100428.88;4899856;29;45462;-73
2021/07/24 11:14:38;;;;;;;;;3.67;3.00;;;;;30.21;31.70;100427.69;4837846;29;45501;-71
2021/07/24 11:17:07;;;;;;;;;2.00;2.00;;;;;30.26;31.40;100436.16;4828011;29;45441;-73
2021/07/24 11:19:37;;;;;;;;;2.67;2.67;;;;;30.31;31.89;100449.16;4833025;29;46986;-73
2021/07/24 11:22:18;;;;;;;;;2.00;2.00;;;;;30.15;31.59;100452.66;4837338;29;45551;-73
2021/07/24 11:25:04;;;;;;;;;1.67;1.00;;;;;29.85;31.84;100443.28;4835198;29;45457;-74